Time;durP1;ratioP1;P1;durP2;ratioP2;P2;SDS_P1;SDS_P2;PMS_P1;PMS_P2;Temp;Humidity;BMP_temperature;BMP_pressure;BME280_temperature;BME280_humidity;BME280_pressure;Samples;Min_cycle;Max_cycle;Signal;HPM_P1;HPM_P2
2022/12/11 00:01:20;;;;;;;1.33;1.23;;;5.90;99.90;;;;;;6155004;28;20511;-62
2022/12/11 00:04:24;;;;;;;1.50;1.40;;;5.90;99.90;;;;;;6154835;28;20958;-61
2022/12/11 00:07:28;;;;;;;0.80;0.80;;;5.90;99.90;;;;;;6154597;28;20574;-62
2022/12/11 00:10:31;;;;;;;1.30;1.20;;;6.00;99.90;;;;;;6154385;28;20486;-61
2022/12/11 00:13:39;;;;;;;0.97;0.97;;;6.00;99.90;;;;;;6154692;28;20626;-61
2022/12/11 00:16:42;;;;;;;1.33;1.23;;;5.90;99.90;;;;;;6154703;28;20569;-61
2022/12/11 00:19:46;;;;;;;1.27;1.17;;;5.90;99.90;;;;;;6154376;28;20467;-62
2022/12/11 00:22:50;;;;;;;0.90;0.90;;;5.90;99.90;;;;;;6154308;28;20502;-61
2022/12/11 00:25:53;;;;;;;1.17;1.17;;;5.90;99.90;;;;;;6154078;28;20541;-61
2022/12/11 00:28:57;;;;;;;1.23;1.17;;;5.90;99.90;;;;;;6154252;28;20479;-61
2022/12/11 00:32:01;;;;;;;1.23;1.13;;;5.90;99.90;;;;;;6153956;28;20513;-62
2022/12/11 00:35:04;;;;;;;1.07;1.03;;;5.90;99.90;;;;;;6153976;28;20553;-62
2022/12/11 00:38:13;;;;;;;1.40;1.30;;;5.90;99.90;;;;;;6172044;28;20478;-62
2022/12/11 00:41:17;;;;;;;1.13;1.03;;;5.90;99.90;;;;;;6178047;28;20474;-62
2022/12/11 00:44:21;;;;;;;0.90;0.80;;;5.90;99.90;;;;;;6177740;28;20814;-62
2022/12/11 00:47:24;;;;;;;1.40;1.30;;;6.00;99.90;;;;;;6177901;28;20977;-62
2022/12/11 00:50:27;;;;;;;2.33;0.90;;;6.00;99.90;;;;;;6178081;28;20950;-62
2022/12/11 00:53:32;;;;;;;0.90;0.90;;;6.00;99.90;;;;;;6177563;28;20485;-62
2022/12/11 00:56:36;;;;;;;1.30;1.20;;;6.00;99.90;;;;;;6159867;28;20963;-62
2022/12/11 00:59:39;;;;;;;1.90;1.80;;;6.00;99.90;;;;;;6153595;28;20467;-62
2022/12/11 01:02:42;;;;;;;0.90;0.90;;;6.00;99.90;;;;;;6153195;28;20965;-62
2022/12/11 01:05:52;;;;;;;1.43;1.33;;;6.10;99.90;;;;;;6153565;28;20481;-62
2022/12/11 01:12:14;;;;;;;1.63;1.53;;;6.10;99.90;;;;;;6152952;28;20594;-62
2022/12/11 01:15:18;;;;;;;1.00;1.00;;;6.00;99.90;;;;;;6153198;28;20481;-61
2022/12/11 01:18:21;;;;;;;1.37;1.23;;;6.00;99.90;;;;;;6152884;28;20474;-61
2022/12/11 01:21:24;;;;;;;1.33;1.20;;;6.00;99.90;;;;;;6153306;28;20786;-61
2022/12/11 01:24:29;;;;;;;1.30;1.20;;;5.90;99.90;;;;;;6152991;28;20489;-62
2022/12/11 01:27:32;;;;;;;1.57;1.47;;;5.90;99.60;;;;;;6153513;28;20883;-61
2022/12/11 01:30:35;;;;;;;1.63;1.50;;;5.90;99.30;;;;;;6152550;28;20489;-61
2022/12/11 01:33:39;;;;;;;1.07;1.07;;;5.90;98.30;;;;;;6152656;28;20838;-61
2022/12/11 01:36:43;;;;;;;1.23;1.13;;;5.90;98.30;;;;;;6159795;28;20482;-61
2022/12/11 01:39:47;;;;;;;1.13;1.13;;;5.90;98.90;;;;;;6177130;28;20810;-62
2022/12/11 01:42:51;;;;;;;1.30;1.20;;;5.90;98.70;;;;;;6176464;28;20552;-61
2022/12/11 01:45:54;;;;;;;1.27;1.17;;;5.80;98.70;;;;;;6176806;28;21087;-61
2022/12/11 01:48:58;;;;;;;1.50;1.40;;;5.90;98.40;;;;;;6176670;28;20473;-61
2022/12/11 01:52:06;;;;;;;1.40;1.30;;;5.90;98.30;;;;;;6176309;28;20495;-62
2022/12/11 01:55:10;;;;;;;1.30;1.20;;;5.90;98.40;;;;;;6170008;28;20486;-61
2022/12/11 01:58:16;;;;;;;2.77;2.57;;;5.90;97.40;;;;;;6152662;28;20520;-62
2022/12/11 02:01:26;;;;;;;5.20;4.70;;;5.90;97.50;;;;;;6152626;28;20487;-61
2022/12/11 02:04:31;;;;;;;3.40;2.80;;;5.90;96.80;;;;;;6152799;28;20998;-61
2022/12/11 02:07:39;;;;;;;2.37;2.27;;;5.90;97.50;;;;;;6153166;28;20806;-61
2022/12/11 02:10:56;;;;;;;3.70;2.00;;;5.90;97.60;;;;;;6152936;28;20486;-61
2022/12/11 02:14:08;;;;;;;2.10;1.90;;;5.90;97.50;;;;;;6152460;28;20475;-61
2022/12/11 02:17:14;;;;;;;1.47;1.20;;;5.90;97.20;;;;;;6152763;28;20970;-61
2022/12/11 02:20:24;;;;;;;0.90;0.90;;;6.00;97.40;;;;;;6152600;28;20486;-61
2022/12/11 02:24:12;;;;;;;0.90;0.90;;;5.90;96.40;;;;;;6152529;28;20510;-61
2022/12/11 02:27:27;;;;;;;1.10;1.00;;;6.00;96.50;;;;;;6079415;29;20486;-61
2022/12/11 02:30:33;;;;;;;1.10;1.10;;;5.90;96.10;;;;;;6079323;28;20486;-61
2022/12/11 02:33:44;;;;;;;0.90;0.90;;;6.00;97.00;;;;;;6152234;28;20530;-61
2022/12/11 02:36:50;;;;;;;1.00;1.00;;;6.00;97.10;;;;;;6159243;28;20483;-61
2022/12/11 02:39:56;;;;;;;1.10;0.80;;;6.00;96.40;;;;;;6176057;28;20481;-62
2022/12/11 02:43:04;;;;;;;1.50;1.30;;;5.90;96.80;;;;;;6178468;28;20464;-62
2022/12/11 02:46:08;;;;;;;0.93;0.93;;;6.00;95.90;;;;;;6180385;28;20886;-61
2022/12/11 02:49:13;;;;;;;1.70;1.23;;;6.00;95.60;;;;;;6180783;28;20478;-62
2022/12/11 02:52:22;;;;;;;0.80;0.80;;;5.90;95.50;;;;;;6180124;28;20894;-62
2022/12/11 02:55:28;;;;;;;0.60;0.60;;;5.90;94.50;;;;;;6171873;28;20967;-61
2022/12/11 02:58:33;;;;;;;1.30;1.20;;;5.90;94.90;;;;;;6156170;28;20482;-61
2022/12/11 03:01:37;;;;;;;0.70;0.70;;;5.80;95.00;;;;;;6156028;28;20811;-62
2022/12/11 03:04:41;;;;;;;0.70;0.70;;;5.80;94.80;;;;;;6155923;28;20490;-62
2022/12/11 03:07:45;;;;;;;0.80;0.80;;;5.80;94.60;;;;;;6156070;28;20534;-61
2022/12/11 03:10:48;;;;;;;0.80;0.80;;;5.80;95.20;;;;;;6156319;28;20486;-62
2022/12/11 03:13:52;;;;;;;0.97;0.80;;;5.80;94.40;;;;;;6155816;28;20490;-62
2022/12/11 03:17:04;;;;;;;1.00;1.00;;;5.80;95.10;;;;;;6155696;28;20475;-62
2022/12/11 03:20:12;;;;;;;1.20;1.10;;;5.80;94.50;;;;;;6155819;28;20525;-62
2022/12/11 03:23:21;;;;;;;1.20;0.87;;;5.70;94.80;;;;;;6155269;28;20483;-61
2022/12/11 03:26:25;;;;;;;0.97;0.90;;;5.70;95.10;;;;;;6155537;28;20479;-62
2022/12/11 03:29:35;;;;;;;1.40;1.03;;;5.70;95.20;;;;;;6155539;28;20487;-62
2022/12/11 03:32:47;;;;;;;1.23;1.00;;;5.70;95.20;;;;;;6155520;28;20491;-62
2022/12/11 03:35:54;;;;;;;1.03;1.00;;;5.60;94.90;;;;;;6155631;28;20989;-62
2022/12/11 03:39:00;;;;;;;1.13;0.90;;;5.50;95.60;;;;;;6179486;28;20470;-62
2022/12/11 03:42:08;;;;;;;1.20;1.10;;;5.40;95.20;;;;;;6179361;28;20485;-62
2022/12/11 03:45:12;;;;;;;1.67;0.90;;;5.30;95.70;;;;;;6179240;28;20984;-62
2022/12/11 03:48:18;;;;;;;0.87;0.87;;;5.40;96.50;;;;;;6179074;28;20589;-62
2022/12/11 03:51:23;;;;;;;1.47;1.17;;;5.30;96.70;;;;;;6179001;28;20580;-62
2022/12/11 03:54:27;;;;;;;1.00;1.00;;;5.20;97.20;;;;;;6177982;28;20478;-62
2022/12/11 03:57:35;;;;;;;0.87;0.80;;;5.20;97.30;;;;;;6154869;28;20479;-62
2022/12/11 04:00:38;;;;;;;1.10;1.00;;;5.20;98.00;;;;;;6148468;28;20535;-62
2022/12/11 04:03:43;;;;;;;1.20;1.10;;;5.20;97.30;;;;;;6131080;28;20491;-62
2022/12/11 04:06:46;;;;;;;1.13;0.83;;;5.20;97.40;;;;;;6131234;28;20471;-62
2022/12/11 04:09:49;;;;;;;3.37;1.10;;;5.20;97.30;;;;;;6135494;28;20484;-62
2022/12/11 04:12:52;;;;;;;1.37;1.27;;;5.20;97.40;;;;;;6126458;28;20492;-62
2022/12/11 04:15:54;;;;;;;1.33;1.23;;;5.20;97.20;;;;;;6142944;28;20920;-62
2022/12/11 04:25:40;;;;;;;1.13;1.03;;;5.10;96.70;;;;;;6156524;28;20529;-62
2022/12/11 04:28:45;;;;;;;1.40;1.30;;;5.00;97.10;;;;;;6148483;28;20486;-62
2022/12/11 04:31:49;;;;;;;2.20;1.43;;;5.10;97.00;;;;;;6139778;28;20482;-61
2022/12/11 04:34:54;;;;;;;1.30;1.20;;;5.00;96.90;;;;;;6141616;28;20486;-61
2022/12/11 04:37:57;;;;;;;1.43;1.33;;;5.10;96.60;;;;;;6136360;28;20878;-61
2022/12/11 04:41:01;;;;;;;1.10;1.00;;;5.00;96.60;;;;;;6139147;28;20475;-62
2022/12/11 04:44:04;;;;;;;1.67;1.57;;;5.00;96.60;;;;;;6137084;28;20551;-60
2022/12/11 04:47:07;;;;;;;1.67;1.57;;;5.00;96.40;;;;;;6129713;28;20487;-62
2022/12/11 04:50:14;;;;;;;1.60;1.50;;;5.00;96.40;;;;;;6129796;28;20480;-62
2022/12/11 04:53:17;;;;;;;1.43;1.33;;;5.10;96.10;;;;;;6129649;28;20484;-62
2022/12/11 04:56:20;;;;;;;1.47;1.37;;;5.20;95.70;;;;;;6160459;28;20470;-62
2022/12/11 04:59:24;;;;;;;2.00;1.77;;;5.20;95.40;;;;;;6177517;28;20470;-62
2022/12/11 05:02:27;;;;;;;3.23;1.50;;;5.20;95.20;;;;;;6177325;28;20497;-62
2022/12/11 05:05:31;;;;;;;1.40;1.30;;;5.30;94.70;;;;;;6176827;28;20513;-62
2022/12/11 05:08:37;;;;;;;1.50;1.40;;;5.20;93.30;;;;;;6177489;28;20474;-62
2022/12/11 05:11:40;;;;;;;1.97;1.37;;;5.20;93.00;;;;;;6177363;28;20477;-62
2022/12/11 05:14:44;;;;;;;1.40;1.30;;;5.20;92.60;;;;;;6176663;28;20786;-62
2022/12/11 05:17:47;;;;;;;1.80;1.70;;;5.20;93.00;;;;;;6176949;28;20482;-62
2022/12/11 05:20:56;;;;;;;1.87;1.77;;;5.30;92.90;;;;;;6177064;28;20478;-62
2022/12/11 05:23:59;;;;;;;1.27;1.20;;;5.30;91.90;;;;;;6177301;28;20529;-62
2022/12/11 05:27:02;;;;;;;1.03;1.03;;;5.20;91.00;;;;;;6176529;28;20473;-62
2022/12/11 05:30:07;;;;;;;1.50;1.43;;;5.20;91.30;;;;;;6176896;28;20981;-62
2022/12/11 05:33:12;;;;;;;1.90;1.80;;;5.20;91.90;;;;;;6176342;28;20481;-62
2022/12/11 05:36:19;;;;;;;1.73;1.63;;;5.30;91.50;;;;;;6173390;28;20471;-62
2022/12/11 05:39:22;;;;;;;1.53;1.43;;;5.20;90.90;;;;;;6152824;28;20489;-62
2022/12/11 05:42:25;;;;;;;1.10;1.10;;;5.30;90.60;;;;;;6152867;28;20475;-63
2022/12/11 05:45:31;;;;;;;1.20;1.10;;;5.30;90.40;;;;;;6152462;28;20474;-62
2022/12/11 05:48:35;;;;;;;1.43;1.33;;;5.30;90.00;;;;;;6151225;28;20994;-62
2022/12/11 05:51:40;;;;;;;1.10;1.10;;;5.30;90.40;;;;;;6151116;28;20502;-62
2022/12/11 05:54:43;;;;;;;2.43;1.40;;;5.40;90.00;;;;;;6153300;28;20486;-62
2022/12/11 05:57:46;;;;;;;1.10;1.10;;;5.30;90.00;;;;;;6174678;28;21043;-62
2022/12/11 06:00:49;;;;;;;1.40;1.30;;;5.40;90.10;;;;;;6175361;28;20495;-63
2022/12/11 06:03:54;;;;;;;1.90;1.50;;;5.50;88.80;;;;;;6176345;28;20493;-62
2022/12/11 06:06:58;;;;;;;1.30;1.20;;;5.40;88.50;;;;;;6176364;28;20462;-62
2022/12/11 06:10:01;;;;;;;1.70;1.47;;;5.40;88.90;;;;;;6176444;28;20879;-62
2022/12/11 06:13:04;;;;;;;1.37;1.27;;;5.50;88.10;;;;;;6175446;28;20816;-62
2022/12/11 06:16:09;;;;;;;1.40;1.30;;;5.40;86.40;;;;;;6177891;28;20454;-62
2022/12/11 06:19:14;;;;;;;1.10;1.00;;;5.40;88.50;;;;;;6181422;28;20504;-62
2022/12/11 06:22:19;;;;;;;1.43;1.33;;;5.40;87.70;;;;;;6181181;28;20478;-63
2022/12/11 06:25:22;;;;;;;1.40;1.30;;;5.40;87.10;;;;;;6181659;28;20540;-62
2022/12/11 06:28:25;;;;;;;2.00;1.33;;;5.40;86.40;;;;;;6181423;28;20512;-62
2022/12/11 06:31:28;;;;;;;1.73;1.47;;;5.40;85.90;;;;;;6180867;28;20473;-62
2022/12/11 06:34:31;;;;;;;1.53;1.37;;;5.40;86.40;;;;;;6181057;28;20478;-62
2022/12/11 06:37:37;;;;;;;1.27;1.17;;;5.40;87.00;;;;;;6168271;28;20470;-63
2022/12/11 06:40:40;;;;;;;1.57;1.47;;;5.40;85.90;;;;;;6157912;28;20508;-61
2022/12/11 06:43:43;;;;;;;1.70;1.60;;;5.40;84.80;;;;;;6156647;28;20478;-62
2022/12/11 06:46:46;;;;;;;1.80;1.70;;;5.30;84.60;;;;;;6156710;28;20484;-61
2022/12/11 06:49:50;;;;;;;1.43;1.33;;;5.30;86.00;;;;;;6156837;28;20482;-61
2022/12/11 06:52:55;;;;;;;1.20;1.10;;;5.40;84.70;;;;;;6156199;28;20494;-61
2022/12/11 06:56:02;;;;;;;1.60;1.50;;;5.40;84.80;;;;;;6169545;28;20489;-62
2022/12/11 06:59:06;;;;;;;1.87;1.73;;;5.40;84.40;;;;;;6180723;28;20966;-62
2022/12/11 07:02:12;;;;;;;1.57;1.47;;;5.40;84.20;;;;;;6180644;28;20473;-61
2022/12/11 07:05:15;;;;;;;1.37;1.27;;;5.40;85.20;;;;;;6180218;28;20485;-61
2022/12/11 07:08:20;;;;;;;1.43;1.33;;;5.40;84.20;;;;;;6180014;28;20488;-62
2022/12/11 07:11:23;;;;;;;2.00;1.90;;;5.50;84.20;;;;;;6180306;28;20791;-62
2022/12/11 07:14:27;;;;;;;1.70;1.60;;;5.50;84.00;;;;;;6179929;28;20481;-62
2022/12/11 07:17:30;;;;;;;1.60;1.50;;;5.50;84.90;;;;;;6180204;28;20840;-62
2022/12/11 07:20:33;;;;;;;1.87;1.77;;;5.60;83.70;;;;;;6180272;28;20478;-62
2022/12/11 07:23:38;;;;;;;2.40;1.73;;;5.70;83.60;;;;;;6175722;28;20486;-62
2022/12/11 07:26:41;;;;;;;1.93;1.83;;;5.70;82.00;;;;;;6179920;28;20536;-62
2022/12/11 07:29:44;;;;;;;2.60;2.40;;;5.80;82.90;;;;;;6178893;28;20474;-61
2022/12/11 07:32:47;;;;;;;2.60;2.00;;;5.80;82.80;;;;;;6179737;28;20485;-62
2022/12/11 07:35:51;;;;;;;2.40;1.87;;;5.80;81.80;;;;;;6179887;28;20616;-62
2022/12/11 07:38:56;;;;;;;2.07;1.90;;;5.90;79.90;;;;;;6131850;28;20480;-61
2022/12/11 07:41:59;;;;;;;3.20;2.60;;;5.80;80.70;;;;;;6131951;28;20968;-62
2022/12/11 07:45:02;;;;;;;2.43;2.23;;;5.80;80.40;;;;;;6131600;28;20534;-61
2022/12/11 07:48:06;;;;;;;3.30;2.80;;;5.90;77.80;;;;;;6131740;28;20510;-62
2022/12/11 07:51:10;;;;;;;2.70;2.50;;;5.90;76.70;;;;;;6131862;28;20983;-62
2022/12/11 07:54:16;;;;;;;2.73;2.50;;;5.90;77.70;;;;;;6131315;28;20504;-63
2022/12/11 07:57:19;;;;;;;2.30;2.00;;;6.00;78.00;;;;;;6178054;28;20619;-63
2022/12/11 08:00:22;;;;;;;2.70;1.90;;;6.10;78.30;;;;;;6179431;28;20926;-63
2022/12/11 08:03:25;;;;;;;2.70;2.47;;;6.20;78.70;;;;;;6179440;28;20482;-63
2022/12/11 08:06:30;;;;;;;2.90;2.60;;;6.20;77.90;;;;;;6179267;28;20671;-63
2022/12/11 08:09:34;;;;;;;3.50;3.20;;;6.10;76.80;;;;;;6179316;28;20512;-63
2022/12/11 08:12:37;;;;;;;3.30;2.73;;;6.10;76.50;;;;;;6178636;28;20489;-63
2022/12/11 08:15:40;;;;;;;5.93;2.40;;;6.10;76.50;;;;;;6179093;28;20474;-62
2022/12/11 08:18:45;;;;;;;2.90;2.70;;;6.10;76.60;;;;;;6179070;28;20485;-62
2022/12/11 08:21:48;;;;;;;3.30;3.00;;;6.30;77.50;;;;;;6178967;28;20470;-62
2022/12/11 08:24:53;;;;;;;3.93;2.60;;;6.40;75.10;;;;;;6178115;28;20963;-62
2022/12/11 08:27:56;;;;;;;3.67;2.50;;;6.40;75.50;;;;;;6179574;28;20977;-62
2022/12/11 08:31:00;;;;;;;3.60;2.73;;;6.60;75.20;;;;;;6179146;28;20520;-62
2022/12/11 08:34:03;;;;;;;2.57;2.37;;;6.60;74.30;;;;;;6178931;28;20486;-62
2022/12/11 08:37:06;;;;;;;2.50;2.30;;;6.70;75.40;;;;;;6169279;28;20447;-62
2022/12/11 08:40:12;;;;;;;2.97;2.77;;;6.70;73.60;;;;;;6155676;28;20447;-62
2022/12/11 08:43:16;;;;;;;3.40;2.53;;;6.80;73.40;;;;;;6154849;28;20474;-62
2022/12/11 08:46:19;;;;;;;3.33;3.00;;;6.90;72.50;;;;;;6154733;28;20471;-62
2022/12/11 08:49:22;;;;;;;2.63;2.17;;;7.00;71.60;;;;;;6154491;28;20481;-62
2022/12/11 08:52:25;;;;;;;2.20;2.00;;;7.00;70.50;;;;;;6153846;28;20474;-63
2022/12/11 08:55:30;;;;;;;3.17;2.30;;;7.00;70.20;;;;;;6162831;28;20488;-62
2022/12/11 08:58:33;;;;;;;3.00;2.30;;;7.10;68.80;;;;;;6178572;28;20470;-62
2022/12/11 09:01:36;;;;;;;3.53;2.80;;;7.20;69.30;;;;;;6178607;28;20476;-63
2022/12/11 09:04:39;;;;;;;5.37;4.47;;;7.20;69.00;;;;;;6178300;28;20552;-62
2022/12/11 09:07:43;;;;;;;3.87;3.47;;;7.30;68.30;;;;;;6178502;28;20482;-62
2022/12/11 09:10:47;;;;;;;3.60;3.30;;;7.30;67.30;;;;;;6178396;28;20484;-62
2022/12/11 09:13:51;;;;;;;6.70;5.70;;;7.30;66.50;;;;;;6195717;28;20471;-63
2022/12/11 09:16:54;;;;;;;7.27;6.67;;;7.30;66.90;;;;;;6196180;28;20551;-63
2022/12/11 09:19:57;;;;;;;18.37;12.57;;;7.40;66.80;;;;;;6178791;28;20532;-62
2022/12/11 09:23:01;;;;;;;11.90;9.20;;;7.40;65.20;;;;;;6177947;28;20481;-62
2022/12/11 09:26:07;;;;;;;12.13;8.50;;;7.30;64.30;;;;;;6177481;28;20474;-62
2022/12/11 09:29:11;;;;;;;10.97;7.47;;;7.20;66.00;;;;;;6177821;28;20582;-62
2022/12/11 09:32:14;;;;;;;2.60;2.40;;;7.10;64.50;;;;;;6177118;28;20490;-62
2022/12/11 09:35:17;;;;;;;3.10;2.80;;;7.00;63.80;;;;;;6177000;28;20477;-62
2022/12/11 09:38:20;;;;;;;3.00;2.70;;;7.00;66.00;;;;;;6157563;28;20541;-62
2022/12/11 09:41:37;;;;;;;3.40;2.53;;;7.10;66.20;;;;;;6153422;28;20478;-62
2022/12/11 09:44:43;;;;;;;2.40;2.10;;;7.20;65.30;;;;;;6153259;28;20491;-62
2022/12/11 09:47:51;;;;;;;2.97;2.43;;;7.30;64.00;;;;;;6153483;28;20779;-62
2022/12/11 09:50:55;;;;;;;3.10;2.30;;;7.40;62.80;;;;;;6152912;28;20471;-63
2022/12/11 09:54:02;;;;;;;2.50;2.30;;;7.30;62.20;;;;;;6153112;28;20520;-62
2022/12/11 09:57:17;;;;;;;2.50;2.30;;;7.30;61.70;;;;;;6174709;28;20485;-62
2022/12/11 10:00:26;;;;;;;3.53;2.20;;;7.20;62.80;;;;;;6177228;28;20827;-62
2022/12/11 10:04:02;;;;;;;2.87;2.30;;;7.00;61.90;;;;;;6177299;28;20474;-63
2022/12/11 10:07:12;;;;;;;2.57;2.10;;;7.00;61.90;;;;;;6176870;28;20778;-62
2022/12/11 10:10:23;;;;;;;2.40;2.20;;;7.10;62.00;;;;;;6177143;28;20797;-62
2022/12/11 10:13:38;;;;;;;3.10;2.80;;;7.10;62.00;;;;;;6177030;28;20481;-61
2022/12/11 10:16:45;;;;;;;6.40;5.00;;;7.00;60.50;;;;;;6177219;28;20540;-61
2022/12/11 10:19:49;;;;;;;8.23;5.90;;;6.80;60.80;;;;;;6176827;28;20480;-61
2022/12/11 10:22:53;;;;;;;4.20;3.33;;;6.90;61.70;;;;;;6177090;28;20489;-62
2022/12/11 10:26:02;;;;;;;14.10;8.80;;;6.90;61.10;;;;;;6177301;28;20492;-61
2022/12/11 10:29:14;;;;;;;9.47;5.67;;;6.90;61.10;;;;;;6177228;28;20479;-62
2022/12/11 10:32:23;;;;;;;7.73;5.23;;;6.90;60.70;;;;;;6176730;28;20469;-63
2022/12/11 10:35:33;;;;;;;9.70;5.80;;;6.80;59.70;;;;;;6171465;28;20493;-62
2022/12/11 10:38:42;;;;;;;13.70;8.63;;;6.80;59.70;;;;;;6141232;28;20814;-62
2022/12/11 10:41:47;;;;;;;19.37;10.00;;;6.70;59.90;;;;;;6138267;28;20463;-62
2022/12/11 10:45:00;;;;;;;6.63;4.33;;;6.70;59.80;;;;;;6145544;28;20803;-62
2022/12/11 10:48:05;;;;;;;4.90;4.40;;;6.70;59.60;;;;;;6136088;28;20490;-62
2022/12/11 10:51:09;;;;;;;12.43;6.67;;;6.60;59.80;;;;;;6139346;28;20803;-62
2022/12/11 10:54:27;;;;;;;10.30;5.80;;;6.70;60.30;;;;;;6139823;28;20836;-62
2022/12/11 10:57:34;;;;;;;18.67;7.60;;;6.80;59.80;;;;;;6141714;28;20485;-62
2022/12/11 11:00:41;;;;;;;24.23;10.60;;;6.80;57.80;;;;;;6141235;28;20485;-63
2022/12/11 11:03:54;;;;;;;13.57;6.00;;;6.80;57.80;;;;;;6139709;28;20475;-63
2022/12/11 11:07:12;;;;;;;4.03;3.43;;;6.90;58.10;;;;;;6141939;28;20479;-62
2022/12/11 11:10:17;;;;;;;12.77;6.53;;;7.10;57.50;;;;;;6142874;28;20483;-62
2022/12/11 11:13:22;;;;;;;6.37;4.33;;;7.50;57.60;;;;;;6140796;28;21018;-62
2022/12/11 11:16:26;;;;;;;4.50;3.50;;;7.60;56.00;;;;;;6133407;28;20471;-62
2022/12/11 11:19:32;;;;;;;3.13;2.83;;;7.70;55.80;;;;;;6132824;28;20928;-63
2022/12/11 11:22:42;;;;;;;3.43;3.13;;;7.80;55.30;;;;;;6132485;28;20836;-63
2022/12/11 11:25:51;;;;;;;3.70;2.63;;;7.90;54.70;;;;;;6132823;28;20488;-63
2022/12/11 11:28:56;;;;;;;3.47;3.13;;;8.10;55.40;;;;;;6132656;28;20468;-63
2022/12/11 11:32:15;;;;;;;5.80;3.50;;;8.30;54.80;;;;;;6132258;28;20776;-63
2022/12/11 11:35:21;;;;;;;2.97;2.73;;;8.50;54.20;;;;;;6132129;28;20874;-63
2022/12/11 11:38:29;;;;;;;4.10;3.70;;;8.50;53.50;;;;;;6172960;28;20486;-63
2022/12/11 11:41:37;;;;;;;2.73;2.50;;;8.50;53.20;;;;;;6188441;28;20954;-62
2022/12/11 11:44:44;;;;;;;2.83;2.50;;;8.20;52.20;;;;;;6186294;28;20478;-63
2022/12/11 11:47:58;;;;;;;4.30;2.27;;;7.90;51.70;;;;;;6180299;28;20962;-63
2022/12/11 11:51:13;;;;;;;2.83;2.63;;;7.60;52.60;;;;;;6179549;28;20797;-62
2022/12/11 11:54:28;;;;;;;2.80;2.50;;;7.30;52.80;;;;;;6179261;28;20490;-63
2022/12/11 11:57:41;;;;;;;3.13;2.60;;;7.30;53.90;;;;;;6132108;28;20480;-63
2022/12/11 12:00:44;;;;;;;3.23;2.53;;;7.20;53.20;;;;;;6132313;28;20491;-62
2022/12/11 12:03:50;;;;;;;2.40;2.20;;;7.30;53.60;;;;;;6131507;28;20475;-63
2022/12/11 12:07:13;;;;;;;3.63;2.70;;;7.30;53.30;;;;;;6131350;28;20550;-63
2022/12/11 12:10:22;;;;;;;2.87;2.57;;;7.30;52.80;;;;;;6131485;28;20900;-62
2022/12/11 12:13:32;;;;;;;2.97;2.57;;;7.30;52.60;;;;;;6131279;28;20460;-63
2022/12/11 12:17:04;;;;;;;3.13;2.83;;;7.10;52.30;;;;;;6131642;28;20561;-63
2022/12/11 12:20:18;;;;;;;2.63;2.43;;;7.10;53.10;;;;;;6131558;28;20563;-62
2022/12/11 12:23:44;;;;;;;3.07;2.47;;;7.20;53.80;;;;;;6132212;28;20476;-63
2022/12/11 12:26:55;;;;;;;2.73;2.53;;;7.30;53.30;;;;;;6131701;28;20472;-62
2022/12/11 12:30:03;;;;;;;3.13;2.53;;;7.30;53.30;;;;;;6131347;28;20472;-63
2022/12/11 12:33:24;;;;;;;2.77;2.57;;;7.20;53.20;;;;;;6131427;28;20475;-63
2022/12/11 12:36:41;;;;;;;2.93;2.40;;;7.20;52.80;;;;;;6140485;28;20470;-62
2022/12/11 12:39:54;;;;;;;3.00;2.53;;;7.10;52.90;;;;;;6179991;28;20474;-63
2022/12/11 12:43:11;;;;;;;2.73;2.53;;;7.00;52.80;;;;;;6179651;28;20782;-63
2022/12/11 12:46:27;;;;;;;2.73;2.40;;;6.90;53.40;;;;;;6179195;28;20450;-63
2022/12/11 12:49:37;;;;;;;2.87;2.67;;;6.90;53.40;;;;;;6179299;28;20835;-63
2022/12/11 12:52:42;;;;;;;2.90;2.50;;;6.70;52.80;;;;;;6178317;28;20813;-62
2022/12/11 12:55:48;;;;;;;4.00;3.40;;;6.60;53.40;;;;;;6178742;28;20556;-63
2022/12/11 12:58:51;;;;;;;3.03;2.73;;;6.50;52.70;;;;;;6178482;28;20478;-63
2022/12/11 13:01:57;;;;;;;3.47;3.17;;;6.40;53.00;;;;;;6178030;28;20473;-63
2022/12/11 13:05:06;;;;;;;3.30;3.00;;;6.40;53.30;;;;;;6177713;28;20826;-63
2022/12/11 13:08:12;;;;;;;2.90;2.60;;;6.30;52.70;;;;;;6178375;28;20478;-63
2022/12/11 13:11:18;;;;;;;3.37;2.63;;;6.40;53.10;;;;;;6177935;28;20474;-63
2022/12/11 13:14:28;;;;;;;3.07;2.83;;;6.50;53.80;;;;;;6143760;28;20946;-62
2022/12/11 13:17:38;;;;;;;3.10;2.57;;;6.50;52.70;;;;;;6141531;28;20483;-62
2022/12/11 13:20:49;;;;;;;2.50;2.30;;;6.40;52.70;;;;;;6137914;28;20680;-62
2022/12/11 13:23:54;;;;;;;3.20;2.63;;;6.50;53.50;;;;;;6142093;28;20472;-62
2022/12/11 13:27:09;;;;;;;2.70;2.33;;;6.40;52.00;;;;;;6142802;28;20478;-62
2022/12/11 13:30:23;;;;;;;2.60;2.40;;;6.40;52.50;;;;;;6143852;28;20480;-62
2022/12/11 13:33:26;;;;;;;2.83;2.53;;;6.30;52.20;;;;;;6143471;28;20501;-62
2022/12/11 13:36:33;;;;;;;2.80;2.50;;;6.10;52.20;;;;;;6138825;28;20808;-63
2022/12/11 13:39:40;;;;;;;2.50;2.30;;;6.10;52.10;;;;;;6143756;28;20478;-62
2022/12/11 13:42:49;;;;;;;3.63;2.70;;;6.00;52.80;;;;;;6145965;28;20789;-63
2022/12/11 13:45:55;;;;;;;3.13;2.77;;;5.90;52.20;;;;;;6144942;28;20479;-62
2022/12/11 13:49:02;;;;;;;3.03;2.73;;;5.80;52.90;;;;;;6149567;28;20486;-62
2022/12/11 13:52:06;;;;;;;3.90;2.53;;;5.70;53.20;;;;;;6154370;28;20537;-62
2022/12/11 13:55:24;;;;;;;2.63;1.97;;;5.70;54.50;;;;;;6164000;28;20818;-61
2022/12/11 13:58:29;;;;;;;2.63;2.43;;;5.50;55.00;;;;;;6167754;28;20471;-61
2022/12/11 14:01:34;;;;;;;4.33;2.90;;;5.50;54.70;;;;;;6163864;28;20468;-62
2022/12/11 14:04:38;;;;;;;2.00;1.90;;;5.50;54.80;;;;;;6144574;28;20490;-62
2022/12/11 14:07:46;;;;;;;2.33;2.13;;;5.40;54.90;;;;;;6142878;28;21038;-62
2022/12/11 14:10:54;;;;;;;2.83;2.63;;;5.20;55.50;;;;;;6144638;28;20522;-61
2022/12/11 14:14:00;;;;;;;2.77;2.30;;;5.20;56.00;;;;;;6140230;28;20481;-61
2022/12/11 14:17:04;;;;;;;2.20;1.93;;;5.20;56.50;;;;;;6140266;28;20525;-62
2022/12/11 14:20:17;;;;;;;3.00;2.80;;;5.10;57.00;;;;;;6143670;28;20467;-62
2022/12/11 14:23:23;;;;;;;2.73;2.53;;;5.10;56.70;;;;;;6139526;28;20565;-61
2022/12/11 14:26:30;;;;;;;2.90;2.37;;;4.90;57.40;;;;;;6139173;28;20470;-62
2022/12/11 14:29:34;;;;;;;3.57;2.77;;;5.00;57.20;;;;;;6129744;28;20952;-62
2022/12/11 14:32:44;;;;;;;3.87;3.10;;;5.00;58.10;;;;;;6143322;28;20810;-64
2022/12/11 14:35:49;;;;;;;3.03;2.40;;;5.00;57.40;;;;;;6148822;28;20827;-62
2022/12/11 14:38:55;;;;;;;2.80;2.60;;;5.00;57.40;;;;;;6147755;28;20824;-62
2022/12/11 14:42:04;;;;;;;2.50;2.30;;;4.90;57.50;;;;;;6141495;28;20487;-62
2022/12/11 14:45:18;;;;;;;3.37;3.07;;;4.90;57.70;;;;;;6131874;28;20583;-62
2022/12/11 14:48:23;;;;;;;6.47;3.60;;;4.80;58.40;;;;;;6131411;28;20483;-60
2022/12/11 14:51:31;;;;;;;14.00;9.67;;;4.80;59.20;;;;;;6132287;28;20487;-62
2022/12/11 14:54:38;;;;;;;32.40;18.27;;;4.80;59.00;;;;;;6139807;28;20493;-61
2022/12/11 14:57:45;;;;;;;38.00;20.67;;;4.80;59.10;;;;;;6179279;28;20481;-62
2022/12/11 15:00:58;;;;;;;19.50;14.00;;;4.70;59.70;;;;;;6178784;28;21047;-61
2022/12/11 15:04:16;;;;;;;16.93;10.03;;;4.50;59.60;;;;;;6178528;28;20486;-61
2022/12/11 15:07:21;;;;;;;23.87;15.80;;;4.40;60.30;;;;;;6178159;28;20557;-60
2022/12/11 15:10:31;;;;;;;10.67;7.50;;;4.40;60.40;;;;;;6175845;28;20925;-61
2022/12/11 15:13:40;;;;;;;7.83;6.03;;;4.40;60.50;;;;;;6153780;28;20577;-61
2022/12/11 15:16:43;;;;;;;5.20;4.20;;;4.30;60.30;;;;;;6153906;28;20490;-61
2022/12/11 15:19:50;;;;;;;6.00;4.70;;;4.30;61.30;;;;;;6154239;28;20979;-61
2022/12/11 15:22:56;;;;;;;3.10;2.77;;;4.30;60.90;;;;;;6153528;28;20487;-60
2022/12/11 15:26:01;;;;;;;2.90;2.70;;;4.20;62.30;;;;;;6153997;28;20639;-60
2022/12/11 15:29:24;;;;;;;2.60;2.40;;;4.10;62.30;;;;;;6154181;28;20474;-61
2022/12/11 15:32:31;;;;;;;2.60;2.40;;;4.00;63.70;;;;;;6153915;28;20479;-62
2022/12/11 15:35:35;;;;;;;3.13;2.83;;;3.90;64.40;;;;;;6153829;28;20471;-61
2022/12/11 15:38:40;;;;;;;3.97;2.97;;;3.80;64.30;;;;;;6175565;28;20484;-63
2022/12/11 15:41:44;;;;;;;4.00;3.03;;;3.90;65.20;;;;;;6177875;28;20585;-62
2022/12/11 15:44:49;;;;;;;3.27;2.97;;;3.90;65.30;;;;;;6177262;28;20973;-62
2022/12/11 15:47:53;;;;;;;3.00;2.70;;;3.90;66.40;;;;;;6177767;28;20489;-61
2022/12/11 15:50:56;;;;;;;3.73;2.93;;;3.90;66.40;;;;;;6176441;28;20466;-63
2022/12/11 15:54:00;;;;;;;4.67;3.30;;;3.90;66.70;;;;;;6165367;28;20573;-62
2022/12/11 15:57:07;;;;;;;3.60;3.30;;;3.90;66.50;;;;;;6170005;28;20473;-62
2022/12/11 16:00:15;;;;;;;3.50;2.90;;;4.00;66.50;;;;;;6177112;28;20485;-61
2022/12/11 16:03:20;;;;;;;3.60;3.07;;;3.90;66.50;;;;;;6176530;28;20489;-61
2022/12/11 16:06:24;;;;;;;4.47;2.83;;;4.00;67.00;;;;;;6176986;28;20485;-61
2022/12/11 16:09:28;;;;;;;3.30;2.87;;;4.00;66.90;;;;;;6177430;28;20474;-61
2022/12/11 16:12:31;;;;;;;4.00;3.60;;;4.00;66.40;;;;;;6177016;28;20986;-61
2022/12/11 16:15:38;;;;;;;3.23;2.97;;;3.90;66.30;;;;;;6177231;28;20597;-62
2022/12/11 16:18:43;;;;;;;4.20;2.83;;;3.90;67.00;;;;;;6147943;28;20486;-62
2022/12/11 16:21:46;;;;;;;2.97;2.63;;;3.80;67.40;;;;;;6141021;28;20482;-62
2022/12/11 16:24:53;;;;;;;3.37;3.07;;;3.80;68.70;;;;;;6139198;28;20483;-62
2022/12/11 16:27:57;;;;;;;3.27;2.97;;;3.80;69.40;;;;;;6138517;28;20494;-61
2022/12/11 16:31:02;;;;;;;2.70;2.50;;;3.70;69.00;;;;;;6140367;28;20488;-62